Wetterdaten: Woche 23.09.24 - 29.09.24 (KW39)
Datum Zeit Temp. I. Temp. A. Feuchte I. Feuchte A. Luftdruck Regen Wind Richtung Sonnenschein Solar Taupunkt Windchill Windböen
23.09.2024 00:00 22,6 °C 10,9 °C 54 % 88 % 1012,5 hPa 0,0 l/m² 0,0 km/h (0 Bft) SO 0,00 h 0 W/m² 9,1 °C 10,9 °C 0,0 km/h (0 Bft)
23.09.2024 01:00 22,5 °C 10,7 °C 54 % 90 % 1012,3 hPa 0,0 l/m² 0,0 km/h (0 Bft) SO 0,00 h 0 W/m² 9,2 °C 10,7 °C 0,0 km/h (0 Bft)
23.09.2024 02:00 22,4 °C 10,0 °C 54 % 91 % 1011,8 hPa 0,0 l/m² 0,0 km/h (0 Bft) SO 0,00 h 0 W/m² 8,6 °C 10,0 °C 0,0 km/h (0 Bft)
23.09.2024 03:00 22,3 °C 9,7 °C 54 % 91 % 1011,3 hPa 0,0 l/m² 0,0 km/h (0 Bft) SO 0,00 h 0 W/m² 8,3 °C 9,7 °C 0,0 km/h (0 Bft)
23.09.2024 04:00 22,3 °C 9,4 °C 54 % 92 % 1011,1 hPa 0,0 l/m² 0,1 km/h (0 Bft) SO 0,00 h 0 W/m² 8,1 °C 9,4 °C 0,3 km/h (0 Bft)
23.09.2024 05:00 22,3 °C 9,2 °C 55 % 93 % 1011,0 hPa 0,0 l/m² 0,2 km/h (0 Bft) SO 0,00 h 0 W/m² 8,0 °C 9,2 °C 0,8 km/h (0 Bft)
23.09.2024 06:00 22,3 °C 8,8 °C 54 % 93 % 1010,7 hPa 0,0 l/m² 0,0 km/h (0 Bft) SO 0,00 h 0 W/m² 7,8 °C 8,8 °C 0,0 km/h (0 Bft)
23.09.2024 07:00 22,1 °C 8,9 °C 52 % 94 % 1010,6 hPa 0,0 l/m² 0,0 km/h (0 Bft) SO 0,07 h 27 W/m² 8,0 °C 8,9 °C 0,0 km/h (0 Bft)
23.09.2024 08:00 22,1 °C 10,8 °C 53 % 93 % 1010,4 hPa 0,0 l/m² 0,0 km/h (0 Bft) SO 1,00 h 151 W/m² 9,7 °C 10,8 °C 0,2 km/h (0 Bft)
23.09.2024 09:00 22,2 °C 15,0 °C 53 % 83 % 1010,5 hPa 0,0 l/m² 1,2 km/h (1 Bft) SO 0,98 h 342 W/m² 12,2 °C 15,0 °C 2,1 km/h (1 Bft)
23.09.2024 10:00 22,5 °C 18,8 °C 53 % 72 % 1010,3 hPa 0,0 l/m² 4,2 km/h (1 Bft) S 1,02 h 476 W/m² 13,6 °C 18,8 °C 6,5 km/h (2 Bft)
23.09.2024 11:00 22,7 °C 21,5 °C 53 % 63 % 1009,9 hPa 0,0 l/m² 5,2 km/h (1 Bft) S-SO 1,00 h 563 W/m² 14,2 °C 21,4 °C 8,9 km/h (2 Bft)
23.09.2024 12:00 22,8 °C 23,6 °C 53 % 57 % 1009,4 hPa 0,0 l/m² 4,1 km/h (1 Bft) S-SO 1,00 h 607 W/m² 14,7 °C 23,6 °C 7,6 km/h (2 Bft)
23.09.2024 13:00 22,9 °C 25,2 °C 53 % 52 % 1008,8 hPa 0,0 l/m² 6,4 km/h (2 Bft) S 1,00 h 546 W/m² 14,5 °C 24,9 °C 9,8 km/h (2 Bft)
23.09.2024 14:00 22,9 °C 26,3 °C 53 % 46 % 1008,5 hPa 0,0 l/m² 9,5 km/h (2 Bft) S-SW 1,00 h 543 W/m² 13,7 °C 25,7 °C 13,4 km/h (3 Bft)
23.09.2024 15:00 23,0 °C 26,5 °C 53 % 43 % 1008,1 hPa 0,0 l/m² 8,3 km/h (2 Bft) SW 1,00 h 458 W/m² 12,8 °C 26,1 °C 12,0 km/h (2 Bft)
23.09.2024 16:00 23,0 °C 26,1 °C 54 % 44 % 1007,5 hPa 0,0 l/m² 5,4 km/h (2 Bft) SW 1,00 h 270 W/m² 13,0 °C 25,9 °C 8,0 km/h (2 Bft)
23.09.2024 17:00 22,9 °C 24,7 °C 54 % 50 % 1007,2 hPa 0,0 l/m² 1,1 km/h (1 Bft) SW 0,97 h 86 W/m² 13,5 °C 24,7 °C 2,0 km/h (1 Bft)
23.09.2024 18:00 22,8 °C 22,6 °C 54 % 58 % 1007,2 hPa 0,0 l/m² 4,6 km/h (1 Bft) W-SW 0,00 h 21 W/m² 13,9 °C 22,3 °C 6,2 km/h (2 Bft)
23.09.2024 19:00 22,8 °C 21,3 °C 55 % 68 % 1007,4 hPa 0,0 l/m² 8,6 km/h (2 Bft) SW 0,00 h 0 W/m² 15,1 °C 20,4 °C 11,6 km/h (2 Bft)
23.09.2024 20:00 23,0 °C 19,4 °C 56 % 76 % 1007,3 hPa 0,0 l/m² 0,6 km/h (0 Bft) W 0,00 h 0 W/m² 15,0 °C 19,4 °C 1,7 km/h (1 Bft)
23.09.2024 21:00 23,1 °C 18,3 °C 57 % 78 % 1007,2 hPa 0,0 l/m² 0,1 km/h (0 Bft) W 0,00 h 0 W/m² 14,5 °C 18,3 °C 0,3 km/h (0 Bft)
23.09.2024 22:00 22,9 °C 17,2 °C 57 % 84 % 1007,2 hPa 0,0 l/m² 0,0 km/h (0 Bft) W 0,00 h 0 W/m² 14,5 °C 17,2 °C 0,0 km/h (0 Bft)
23.09.2024 23:00 22,7 °C 17,1 °C 57 % 83 % 1007,1 hPa 0,0 l/m² 0,1 km/h (0 Bft) W 0,00 h 0 W/m² 14,1 °C 17,1 °C 0,2 km/h (0 Bft)
24.09.2024 00:00 22,6 °C 15,9 °C 57 % 86 % 1006,9 hPa 0,0 l/m² 0,0 km/h (0 Bft) W 0,00 h 0 W/m² 13,6 °C 15,9 °C 0,1 km/h (0 Bft)
24.09.2024 01:00 22,6 °C 15,4 °C 57 % 89 % 1006,6 hPa 0,0 l/m² 0,0 km/h (0 Bft) W 0,00 h 0 W/m² 13,6 °C 15,4 °C 0,0 km/h (0 Bft)
24.09.2024 02:00 22,5 °C 15,7 °C 57 % 88 % 1006,2 hPa 0,0 l/m² 0,0 km/h (0 Bft) W 0,00 h 0 W/m² 13,6 °C 15,7 °C 0,0 km/h (0 Bft)
24.09.2024 03:00 22,4 °C 16,3 °C 57 % 91 % 1006,0 hPa 0,6 l/m² 2,6 km/h (1 Bft) W 0,00 h 0 W/m² 14,7 °C 16,2 °C 5,1 km/h (1 Bft)
24.09.2024 04:00 22,4 °C 16,2 °C 57 % 93 % 1005,9 hPa 5,2 l/m² 3,8 km/h (1 Bft) S-SW 0,00 h 0 W/m² 15,0 °C 15,8 °C 6,0 km/h (2 Bft)
24.09.2024 05:00 22,5 °C 15,9 °C 57 % 94 % 1005,3 hPa 2,0 l/m² 2,1 km/h (1 Bft) W-SW 0,00 h 0 W/m² 14,9 °C 15,9 °C 4,0 km/h (1 Bft)
24.09.2024 06:00 22,4 °C 15,8 °C 58 % 95 % 1005,0 hPa 1,6 l/m² 0,1 km/h (0 Bft) W-SW 0,00 h 0 W/m² 15,0 °C 15,8 °C 0,3 km/h (0 Bft)
24.09.2024 07:00 22,4 °C 15,6 °C 59 % 95 % 1004,8 hPa 5,4 l/m² 5,5 km/h (2 Bft) SW 0,00 h 6 W/m² 14,8 °C 15,2 °C 8,0 km/h (2 Bft)
24.09.2024 08:00 22,4 °C 15,4 °C 58 % 95 % 1004,9 hPa 2,6 l/m² 6,6 km/h (2 Bft) SW 0,00 h 12 W/m² 14,6 °C 15,0 °C 9,2 km/h (2 Bft)
24.09.2024 09:00 22,3 °C 15,2 °C 58 % 95 % 1005,1 hPa 2,8 l/m² 6,6 km/h (2 Bft) SW 0,00 h 23 W/m² 14,4 °C 14,7 °C 9,1 km/h (2 Bft)
24.09.2024 10:00 22,3 °C 15,3 °C 58 % 95 % 1005,3 hPa 1,4 l/m² 8,7 km/h (2 Bft) SW 0,98 h 64 W/m² 14,5 °C 14,1 °C 11,7 km/h (2 Bft)
24.09.2024 11:00 22,3 °C 15,3 °C 58 % 95 % 1005,1 hPa 1,0 l/m² 8,6 km/h (2 Bft) SW 1,00 h 74 W/m² 14,4 °C 13,9 °C 12,0 km/h (2 Bft)
24.09.2024 12:00 22,3 °C 15,7 °C 58 % 93 % 1004,9 hPa 0,0 l/m² 6,4 km/h (2 Bft) S-SW 1,00 h 130 W/m² 14,6 °C 15,4 °C 9,3 km/h (2 Bft)
24.09.2024 13:00 22,4 °C 16,7 °C 57 % 89 % 1004,8 hPa 0,0 l/m² 9,2 km/h (2 Bft) S-SW 1,00 h 264 W/m² 15,0 °C 15,4 °C 12,3 km/h (2 Bft)
24.09.2024 14:00 22,6 °C 18,1 °C 57 % 83 % 1004,5 hPa 0,0 l/m² 13,4 km/h (3 Bft) S-SW 1,00 h 319 W/m² 15,2 °C 15,5 °C 17,7 km/h (3 Bft)
24.09.2024 15:00 22,7 °C 18,8 °C 57 % 79 % 1004,2 hPa 0,0 l/m² 14,4 km/h (3 Bft) S 1,00 h 252 W/m² 15,2 °C 16,1 °C 19,0 km/h (3 Bft)
24.09.2024 16:00 22,6 °C 18,5 °C 58 % 80 % 1003,9 hPa 0,0 l/m² 17,2 km/h (3 Bft) S 1,00 h 291 W/m² 15,0 °C 14,9 °C 22,8 km/h (4 Bft)
24.09.2024 17:00 22,4 °C 18,2 °C 56 % 75 % 1003,8 hPa 0,2 l/m² 17,6 km/h (3 Bft) S-SW 0,87 h 107 W/m² 13,8 °C 14,4 °C 22,6 km/h (4 Bft)
24.09.2024 18:00 22,3 °C 17,2 °C 57 % 77 % 1003,8 hPa 0,0 l/m² 13,1 km/h (3 Bft) S-SW 0,00 h 18 W/m² 13,2 °C 14,5 °C 16,5 km/h (3 Bft)
24.09.2024 19:00 22,4 °C 16,5 °C 57 % 79 % 1004,2 hPa 0,0 l/m² 11,4 km/h (2 Bft) SW 0,00 h 0 W/m² 12,9 °C 14,3 °C 15,4 km/h (3 Bft)
24.09.2024 20:00 22,3 °C 15,8 °C 58 % 82 % 1004,4 hPa 0,0 l/m² 14,2 km/h (3 Bft) S-SW 0,00 h 0 W/m² 12,8 °C 12,5 °C 18,1 km/h (3 Bft)
24.09.2024 21:00 22,3 °C 15,5 °C 58 % 84 % 1004,3 hPa 0,0 l/m² 10,9 km/h (2 Bft) S-SO 0,00 h 0 W/m² 12,7 °C 13,4 °C 14,7 km/h (3 Bft)
24.09.2024 22:00 22,3 °C 15,4 °C 58 % 85 % 1004,4 hPa 0,0 l/m² 8,3 km/h (2 Bft) S 0,00 h 0 W/m² 12,8 °C 14,3 °C 11,2 km/h (2 Bft)
24.09.2024 23:00 22,2 °C 15,2 °C 58 % 84 % 1004,5 hPa 0,0 l/m² 8,5 km/h (2 Bft) S 0,00 h 0 W/m² 12,5 °C 14,1 °C 11,9 km/h (2 Bft)
25.09.2024 00:00 22,1 °C 15,0 °C 58 % 84 % 1004,4 hPa 0,0 l/m² 9,6 km/h (2 Bft) S 0,00 h 0 W/m² 12,4 °C 13,4 °C 13,2 km/h (3 Bft)
25.09.2024 01:00 22,1 °C 15,0 °C 59 % 86 % 1004,4 hPa 0,0 l/m² 7,6 km/h (2 Bft) S 0,00 h 0 W/m² 12,6 °C 14,2 °C 10,8 km/h (2 Bft)
25.09.2024 02:00 22,1 °C 15,4 °C 59 % 85 % 1004,5 hPa 0,0 l/m² 13,9 km/h (3 Bft) S-SW 0,00 h 0 W/m² 12,8 °C 12,0 °C 18,6 km/h (3 Bft)
25.09.2024 03:00 22,1 °C 15,3 °C 59 % 86 % 1004,8 hPa 0,0 l/m² 10,3 km/h (2 Bft) SW 0,00 h 0 W/m² 13,0 °C 13,4 °C 14,3 km/h (3 Bft)
25.09.2024 04:00 22,0 °C 14,9 °C 59 % 88 % 1005,2 hPa 0,0 l/m² 11,1 km/h (2 Bft) SW 0,00 h 0 W/m² 12,9 °C 12,5 °C 15,2 km/h (3 Bft)
25.09.2024 05:00 22,0 °C 15,0 °C 59 % 88 % 1005,6 hPa 0,0 l/m² 5,2 km/h (1 Bft) S-SW 0,00 h 0 W/m² 13,1 °C 14,6 °C 7,9 km/h (2 Bft)
25.09.2024 06:00 21,9 °C 15,2 °C 59 % 88 % 1005,7 hPa 0,0 l/m² 10,8 km/h (2 Bft) S-SW 0,00 h 0 W/m² 13,3 °C 13,1 °C 13,8 km/h (3 Bft)
25.09.2024 07:00 21,9 °C 15,1 °C 59 % 90 % 1005,9 hPa 0,0 l/m² 5,7 km/h (2 Bft) S 0,00 h 9 W/m² 13,4 °C 14,9 °C 8,0 km/h (2 Bft)
25.09.2024 08:00 21,8 °C 15,5 °C 59 % 89 % 1006,3 hPa 0,0 l/m² 6,2 km/h (2 Bft) S 0,48 h 60 W/m² 13,7 °C 15,3 °C 8,5 km/h (2 Bft)
25.09.2024 09:00 21,9 °C 16,1 °C 58 % 86 % 1006,6 hPa 0,0 l/m² 13,5 km/h (3 Bft) S-SW 1,00 h 138 W/m² 13,8 °C 13,2 °C 17,3 km/h (3 Bft)
25.09.2024 10:00 22,0 °C 16,6 °C 58 % 85 % 1006,7 hPa 0,0 l/m² 14,8 km/h (3 Bft) S-SW 1,00 h 231 W/m² 14,1 °C 13,3 °C 19,0 km/h (3 Bft)
25.09.2024 11:00 22,0 °C 16,6 °C 58 % 85 % 1006,9 hPa 0,0 l/m² 13,7 km/h (3 Bft) SW 1,00 h 176 W/m² 14,1 °C 13,6 °C 18,2 km/h (3 Bft)
25.09.2024 12:00 22,0 °C 17,4 °C 58 % 82 % 1006,7 hPa 0,0 l/m² 16,0 km/h (3 Bft) S 1,00 h 150 W/m² 14,3 °C 13,9 °C 21,6 km/h (4 Bft)
25.09.2024 13:00 22,1 °C 17,8 °C 58 % 80 % 1006,6 hPa 0,0 l/m² 14,4 km/h (3 Bft) S-SW 1,00 h 220 W/m² 14,3 °C 14,9 °C 20,0 km/h (4 Bft)
25.09.2024 14:00 22,1 °C 18,6 °C 57 % 74 % 1006,5 hPa 0,0 l/m² 20,0 km/h (4 Bft) S-SW 1,00 h 167 W/m² 13,9 °C 14,4 °C 25,7 km/h (4 Bft)
25.09.2024 15:00 22,1 °C 18,8 °C 58 % 73 % 1006,4 hPa 0,0 l/m² 15,9 km/h (3 Bft) S-SW 1,00 h 160 W/m² 13,8 °C 15,6 °C 20,1 km/h (4 Bft)
25.09.2024 16:00 22,1 °C 18,8 °C 58 % 74 % 1006,1 hPa 0,0 l/m² 10,1 km/h (2 Bft) S 0,80 h 82 W/m² 14,0 °C 17,3 °C 13,2 km/h (3 Bft)
25.09.2024 17:00 22,0 °C 18,5 °C 58 % 76 % 1005,6 hPa 0,0 l/m² 7,4 km/h (2 Bft) S-SO 0,82 h 67 W/m² 14,2 °C 17,8 °C 10,4 km/h (2 Bft)
25.09.2024 18:00 22,0 °C 18,1 °C 58 % 77 % 1005,2 hPa 0,0 l/m² 7,4 km/h (2 Bft) S 0,23 h 33 W/m² 14,0 °C 17,4 °C 10,4 km/h (2 Bft)
25.09.2024 19:00 22,0 °C 17,2 °C 58 % 80 % 1005,0 hPa 0,0 l/m² 9,9 km/h (2 Bft) S 0,00 h 0 W/m² 13,6 °C 15,6 °C 13,6 km/h (3 Bft)
25.09.2024 20:00 22,1 °C 16,7 °C 59 % 81 % 1005,0 hPa 0,0 l/m² 10,2 km/h (2 Bft) S 0,00 h 0 W/m² 13,5 °C 14,9 °C 13,3 km/h (3 Bft)
25.09.2024 21:00 22,1 °C 16,2 °C 59 % 82 % 1004,7 hPa 0,0 l/m² 7,6 km/h (2 Bft) S 0,00 h 0 W/m² 13,2 °C 15,4 °C 10,1 km/h (2 Bft)
25.09.2024 22:00 22,0 °C 15,4 °C 60 % 85 % 1004,3 hPa 0,0 l/m² 2,3 km/h (1 Bft) S-SO 0,00 h 0 W/m² 12,9 °C 15,4 °C 3,8 km/h (1 Bft)
25.09.2024 23:00 21,8 °C 15,1 °C 60 % 86 % 1003,4 hPa 0,0 l/m² 6,7 km/h (2 Bft) O-SO 0,00 h 0 W/m² 12,7 °C 14,6 °C 10,4 km/h (2 Bft)
26.09.2024 00:00 21,8 °C 15,8 °C 60 % 83 % 1002,6 hPa 0,0 l/m² 9,9 km/h (2 Bft) SO 0,00 h 0 W/m² 12,9 °C 14,1 °C 14,2 km/h (3 Bft)
26.09.2024 01:00 21,7 °C 15,9 °C 60 % 82 % 1002,0 hPa 0,0 l/m² 10,1 km/h (2 Bft) SO 0,00 h 0 W/m² 12,9 °C 14,1 °C 14,0 km/h (3 Bft)
26.09.2024 02:00 21,7 °C 16,2 °C 60 % 81 % 1001,4 hPa 0,0 l/m² 12,6 km/h (2 Bft) S 0,00 h 0 W/m² 12,9 °C 13,5 °C 18,5 km/h (3 Bft)
26.09.2024 03:00 21,7 °C 15,9 °C 60 % 82 % 1000,3 hPa 0,0 l/m² 13,6 km/h (3 Bft) S-SO 0,00 h 0 W/m² 12,9 °C 12,8 °C 19,1 km/h (3 Bft)
26.09.2024 04:00 21,6 °C 15,7 °C 60 % 82 % 999,0 hPa 0,0 l/m² 13,0 km/h (3 Bft) SO 0,00 h 0 W/m² 12,7 °C 12,8 °C 18,5 km/h (3 Bft)
26.09.2024 05:00 21,7 °C 15,9 °C 60 % 81 % 997,9 hPa 0,0 l/m² 16,4 km/h (3 Bft) SO 0,00 h 0 W/m² 12,6 °C 11,8 °C 22,8 km/h (4 Bft)
26.09.2024 06:00 21,7 °C 15,9 °C 60 % 80 % 997,0 hPa 0,0 l/m² 17,0 km/h (3 Bft) SO 0,00 h 0 W/m² 12,5 °C 11,7 °C 24,2 km/h (4 Bft)
26.09.2024 07:00 21,6 °C 15,4 °C 59 % 82 % 995,8 hPa 0,2 l/m² 17,1 km/h (3 Bft) SO 0,00 h 8 W/m² 12,4 °C 11,1 °C 24,6 km/h (4 Bft)
26.09.2024 08:00 21,6 °C 15,3 °C 59 % 83 % 994,8 hPa 0,0 l/m² 14,1 km/h (3 Bft) SO 0,00 h 24 W/m² 12,5 °C 12,0 °C 19,7 km/h (3 Bft)
26.09.2024 09:00 21,6 °C 15,9 °C 59 % 81 % 994,0 hPa 0,0 l/m² 18,9 km/h (3 Bft) SO 0,75 h 64 W/m² 12,7 °C 11,3 °C 26,0 km/h (4 Bft)
26.09.2024 10:00 21,6 °C 15,8 °C 59 % 86 % 993,4 hPa 0,2 l/m² 14,8 km/h (3 Bft) S-SO 0,83 h 88 W/m² 13,4 °C 12,4 °C 20,5 km/h (4 Bft)
26.09.2024 11:00 21,6 °C 17,0 °C 59 % 85 % 993,2 hPa 0,0 l/m² 15,4 km/h (3 Bft) S-SO 0,95 h 137 W/m² 14,3 °C 13,5 °C 21,5 km/h (4 Bft)
26.09.2024 12:00 21,6 °C 17,8 °C 59 % 82 % 993,9 hPa 0,0 l/m² 12,0 km/h (2 Bft) S-SO 0,53 h 65 W/m² 14,8 °C 15,7 °C 16,5 km/h (3 Bft)
26.09.2024 13:00 21,6 °C 18,7 °C 59 % 82 % 994,2 hPa 0,0 l/m² 14,9 km/h (3 Bft) SW 0,90 h 106 W/m² 15,7 °C 15,9 °C 19,6 km/h (3 Bft)
26.09.2024 14:00 21,6 °C 19,5 °C 59 % 81 % 994,6 hPa 0,2 l/m² 15,1 km/h (3 Bft) SW 1,00 h 133 W/m² 16,2 °C 16,7 °C 20,2 km/h (4 Bft)
26.09.2024 15:00 21,6 °C 20,2 °C 59 % 78 % 994,9 hPa 0,0 l/m² 19,5 km/h (3 Bft) S-SW 1,00 h 131 W/m² 16,2 °C 16,6 °C 25,4 km/h (4 Bft)
26.09.2024 16:00 21,6 °C 20,2 °C 59 % 75 % 994,6 hPa 0,0 l/m² 22,7 km/h (4 Bft) S-SW 1,00 h 144 W/m² 15,5 °C 16,0 °C 29,9 km/h (5 Bft)
26.09.2024 17:00 21,6 °C 19,4 °C 59 % 76 % 994,7 hPa 0,0 l/m² 20,2 km/h (4 Bft) SW 0,40 h 50 W/m² 15,1 °C 15,5 °C 26,0 km/h (4 Bft)
26.09.2024 18:00 21,6 °C 19,0 °C 59 % 79 % 994,8 hPa 0,0 l/m² 15,9 km/h (3 Bft) S-SW 0,00 h 17 W/m² 15,3 °C 16,0 °C 21,0 km/h (4 Bft)
26.09.2024 19:00 21,6 °C 17,8 °C 60 % 83 % 995,4 hPa 0,0 l/m² 16,4 km/h (3 Bft) S-SW 0,00 h 0 W/m² 14,8 °C 14,3 °C 21,4 km/h (4 Bft)
26.09.2024 20:00 21,6 °C 17,0 °C 61 % 87 % 995,7 hPa 0,4 l/m² 15,3 km/h (3 Bft) S 0,00 h 0 W/m² 14,8 °C 13,6 °C 20,2 km/h (4 Bft)
26.09.2024 21:00 21,7 °C 16,6 °C 62 % 90 % 995,8 hPa 0,4 l/m² 15,4 km/h (3 Bft) S 0,00 h 0 W/m² 15,0 °C 13,1 °C 21,3 km/h (4 Bft)
26.09.2024 22:00 21,8 °C 16,6 °C 62 % 90 % 995,3 hPa 0,0 l/m² 14,3 km/h (3 Bft) S-SO 0,00 h 0 W/m² 15,0 °C 13,4 °C 19,9 km/h (4 Bft)
26.09.2024 23:00 21,7 °C 16,7 °C 62 % 86 % 994,9 hPa 0,0 l/m² 16,3 km/h (3 Bft) S 0,00 h 0 W/m² 14,3 °C 12,9 °C 22,7 km/h (4 Bft)
27.09.2024 00:00 21,6 °C 16,6 °C 62 % 84 % 994,7 hPa 0,0 l/m² 13,0 km/h (3 Bft) S 0,00 h 0 W/m² 14,0 °C 13,9 °C 17,9 km/h (3 Bft)
27.09.2024 01:00 21,4 °C 16,5 °C 61 % 84 % 995,7 hPa 0,0 l/m² 18,1 km/h (3 Bft) SW 0,00 h 0 W/m² 13,7 °C 12,3 °C 24,0 km/h (4 Bft)
27.09.2024 02:00 21,4 °C 15,9 °C 61 % 83 % 996,6 hPa 0,0 l/m² 20,6 km/h (4 Bft) SW 0,00 h 0 W/m² 12,9 °C 10,8 °C 27,1 km/h (5 Bft)
27.09.2024 03:00 21,4 °C 15,6 °C 61 % 82 % 997,3 hPa 0,0 l/m² 13,0 km/h (3 Bft) SW 0,00 h 0 W/m² 12,5 °C 12,8 °C 17,6 km/h (3 Bft)
27.09.2024 04:00 21,4 °C 15,3 °C 61 % 81 % 997,7 hPa 0,0 l/m² 11,3 km/h (2 Bft) S-SW 0,00 h 0 W/m² 12,0 °C 12,9 °C 15,7 km/h (3 Bft)
27.09.2024 05:00 21,3 °C 15,3 °C 60 % 79 % 998,0 hPa 0,0 l/m² 16,7 km/h (3 Bft) S-SW 0,00 h 0 W/m² 11,7 °C 11,1 °C 22,1 km/h (4 Bft)
27.09.2024 06:00 21,3 °C 15,3 °C 60 % 77 % 998,3 hPa 0,0 l/m² 19,6 km/h (3 Bft) S-SW 0,00 h 0 W/m² 11,3 °C 10,3 °C 26,9 km/h (4 Bft)
27.09.2024 07:00 21,5 °C 14,8 °C 61 % 78 % 998,9 hPa 0,0 l/m² 17,9 km/h (3 Bft) S 0,03 h 19 W/m² 11,0 °C 10,1 °C 24,7 km/h (4 Bft)
27.09.2024 08:00 21,6 °C 15,1 °C 60 % 78 % 999,4 hPa 0,0 l/m² 17,4 km/h (3 Bft) S 0,88 h 160 W/m² 11,3 °C 10,6 °C 25,2 km/h (4 Bft)
27.09.2024 09:00 21,7 °C 16,1 °C 59 % 75 % 999,7 hPa 0,2 l/m² 20,3 km/h (4 Bft) S 1,02 h 261 W/m² 11,6 °C 11,1 °C 28,5 km/h (5 Bft)
27.09.2024 10:00 21,9 °C 16,8 °C 58 % 72 % 999,9 hPa 0,0 l/m² 22,6 km/h (4 Bft) S-SW 1,00 h 357 W/m² 11,7 °C 11,7 °C 30,1 km/h (5 Bft)
27.09.2024 11:00 21,9 °C 17,6 °C 58 % 70 % 999,5 hPa 0,0 l/m² 29,1 km/h (5 Bft) S-SW 1,00 h 583 W/m² 12,1 °C 11,6 °C 38,6 km/h (6 Bft)
27.09.2024 12:00 22,1 °C 18,6 °C 58 % 66 % 999,0 hPa 0,0 l/m² 34,5 km/h (5 Bft) S-SW 1,00 h 646 W/m² 12,2 °C 12,3 °C 44,6 km/h (6 Bft)
27.09.2024 13:00 22,1 °C 19,1 °C 58 % 62 % 998,1 hPa 0,0 l/m² 38,3 km/h (6 Bft) S-SW 1,00 h 632 W/m² 11,8 °C 12,6 °C 49,4 km/h (7 Bft)
27.09.2024 14:00 22,0 °C 19,7 °C 57 % 59 % 997,9 hPa 0,0 l/m² 39,1 km/h (6 Bft) S-SW 1,00 h 587 W/m² 11,3 °C 13,4 °C 50,9 km/h (7 Bft)
27.09.2024 15:00 21,9 °C 19,1 °C 59 % 59 % 998,5 hPa 0,0 l/m² 34,8 km/h (5 Bft) S-SW 1,00 h 270 W/m² 10,8 °C 12,9 °C 44,3 km/h (6 Bft)
27.09.2024 16:00 21,8 °C 18,6 °C 60 % 61 % 998,7 hPa 0,0 l/m² 24,3 km/h (4 Bft) SW 1,00 h 136 W/m² 10,9 °C 13,7 °C 31,7 km/h (5 Bft)
27.09.2024 17:00 21,8 °C 17,8 °C 60 % 63 % 998,7 hPa 0,0 l/m² 20,6 km/h (4 Bft) S-SW 0,63 h 117 W/m² 10,8 °C 13,3 °C 28,1 km/h (5 Bft)
27.09.2024 18:00 21,7 °C 15,9 °C 60 % 68 % 1000,1 hPa 0,0 l/m² 26,2 km/h (4 Bft) S-SW 0,00 h 15 W/m² 9,8 °C 9,7 °C 35,5 km/h (5 Bft)
27.09.2024 19:00 21,7 °C 14,1 °C 60 % 72 % 1000,5 hPa 0,0 l/m² 24,7 km/h (4 Bft) SW 0,00 h 0 W/m² 9,2 °C 7,6 °C 32,9 km/h (5 Bft)
27.09.2024 20:00 21,5 °C 13,7 °C 61 % 73 % 1001,5 hPa 0,0 l/m² 22,0 km/h (4 Bft) S-SW 0,00 h 0 W/m² 9,0 °C 7,6 °C 29,5 km/h (5 Bft)
27.09.2024 21:00 21,4 °C 13,8 °C 61 % 71 % 1001,7 hPa 0,0 l/m² 21,1 km/h (4 Bft) S-SW 0,00 h 0 W/m² 8,7 °C 8,0 °C 28,7 km/h (5 Bft)
27.09.2024 22:00 21,4 °C 13,7 °C 61 % 70 % 1001,9 hPa 0,0 l/m² 19,8 km/h (3 Bft) S-SW 0,00 h 0 W/m² 8,4 °C 8,2 °C 27,4 km/h (5 Bft)
27.09.2024 23:00 21,3 °C 14,0 °C 60 % 70 % 1002,3 hPa 0,0 l/m² 23,5 km/h (4 Bft) SW 0,00 h 0 W/m² 8,6 °C 7,7 °C 30,7 km/h (5 Bft)
28.09.2024 00:00 21,3 °C 13,6 °C 60 % 73 % 1003,0 hPa 0,0 l/m² 23,3 km/h (4 Bft) SW 0,00 h 0 W/m² 8,8 °C 7,2 °C 32,5 km/h (5 Bft)
28.09.2024 01:00 21,3 °C 12,9 °C 60 % 77 % 1003,6 hPa 0,0 l/m² 19,9 km/h (4 Bft) SW 0,00 h 0 W/m² 8,9 °C 7,1 °C 26,6 km/h (4 Bft)
28.09.2024 02:00 21,2 °C 12,7 °C 60 % 79 % 1004,6 hPa 0,0 l/m² 17,0 km/h (3 Bft) SW 0,00 h 0 W/m² 9,2 °C 7,8 °C 22,9 km/h (4 Bft)
28.09.2024 03:00 21,2 °C 12,8 °C 60 % 81 % 1006,2 hPa 0,0 l/m² 18,3 km/h (3 Bft) SW 0,00 h 0 W/m² 9,6 °C 7,5 °C 23,6 km/h (4 Bft)
28.09.2024 04:00 21,1 °C 12,8 °C 60 % 82 % 1007,5 hPa 0,0 l/m² 19,1 km/h (3 Bft) SW 0,00 h 0 W/m² 9,8 °C 7,2 °C 24,6 km/h (4 Bft)
28.09.2024 05:00 21,1 °C 12,4 °C 60 % 84 % 1008,3 hPa 0,0 l/m² 14,6 km/h (3 Bft) SW 0,00 h 0 W/m² 9,7 °C 8,2 °C 18,9 km/h (3 Bft)
28.09.2024 06:00 21,0 °C 11,7 °C 60 % 86 % 1008,9 hPa 0,0 l/m² 10,6 km/h (2 Bft) W-SW 0,00 h 0 W/m² 9,4 °C 9,3 °C 16,5 km/h (3 Bft)
28.09.2024 07:00 21,0 °C 11,5 °C 60 % 88 % 1010,1 hPa 0,0 l/m² 7,2 km/h (2 Bft) W-SW 0,00 h 20 W/m² 9,6 °C 10,7 °C 10,7 km/h (2 Bft)
28.09.2024 08:00 20,9 °C 11,7 °C 60 % 87 % 1011,5 hPa 0,0 l/m² 6,1 km/h (2 Bft) W-SW 0,57 h 52 W/m² 9,6 °C 11,3 °C 9,3 km/h (2 Bft)
28.09.2024 09:00 20,9 °C 13,0 °C 60 % 81 % 1012,7 hPa 0,0 l/m² 10,5 km/h (2 Bft) W-SW 1,00 h 270 W/m² 9,8 °C 10,7 °C 15,0 km/h (3 Bft)
28.09.2024 10:00 21,0 °C 14,4 °C 59 % 71 % 1013,7 hPa 0,0 l/m² 12,1 km/h (2 Bft) W 1,00 h 339 W/m² 9,3 °C 11,7 °C 19,1 km/h (3 Bft)
28.09.2024 11:00 21,0 °C 14,6 °C 59 % 67 % 1014,4 hPa 0,0 l/m² 12,5 km/h (2 Bft) W 1,00 h 447 W/m² 8,7 °C 11,8 °C 21,7 km/h (4 Bft)
28.09.2024 12:00 21,0 °C 15,6 °C 59 % 61 % 1014,8 hPa 0,0 l/m² 13,8 km/h (3 Bft) W 1,00 h 488 W/m² 8,1 °C 12,4 °C 22,3 km/h (4 Bft)
28.09.2024 13:00 21,0 °C 15,8 °C 59 % 58 % 1015,4 hPa 0,0 l/m² 14,7 km/h (3 Bft) W-SW 1,00 h 430 W/m² 7,6 °C 12,4 °C 22,3 km/h (4 Bft)
28.09.2024 14:00 21,0 °C 15,7 °C 59 % 59 % 1015,9 hPa 0,0 l/m² 12,8 km/h (3 Bft) W 1,00 h 396 W/m² 7,7 °C 13,0 °C 20,6 km/h (4 Bft)
28.09.2024 15:00 21,0 °C 13,2 °C 59 % 73 % 1017,0 hPa 0,2 l/m² 12,9 km/h (3 Bft) W 1,00 h 205 W/m² 8,4 °C 10,2 °C 19,3 km/h (3 Bft)
28.09.2024 16:00 21,0 °C 14,2 °C 59 % 64 % 1017,9 hPa 0,0 l/m² 13,4 km/h (3 Bft) W 1,00 h 241 W/m² 7,6 °C 11,0 °C 21,6 km/h (4 Bft)
28.09.2024 17:00 21,0 °C 14,0 °C 58 % 63 % 1019,0 hPa 0,0 l/m² 9,5 km/h (2 Bft) W-NW 0,83 h 168 W/m² 7,1 °C 12,2 °C 17,5 km/h (3 Bft)
28.09.2024 18:00 20,9 °C 12,0 °C 58 % 69 % 1020,1 hPa 0,0 l/m² 10,7 km/h (2 Bft) W 0,00 h 22 W/m² 6,4 °C 9,6 °C 17,4 km/h (3 Bft)
28.09.2024 19:00 20,8 °C 10,5 °C 59 % 76 % 1021,3 hPa 0,2 l/m² 7,2 km/h (2 Bft) W-SW 0,00 h 0 W/m² 6,4 °C 9,7 °C 11,9 km/h (2 Bft)
28.09.2024 20:00 20,8 °C 9,0 °C 59 % 81 % 1022,2 hPa 0,0 l/m² 3,1 km/h (1 Bft) W-SW 0,00 h 0 W/m² 5,9 °C 8,7 °C 4,8 km/h (1 Bft)
28.09.2024 21:00 20,7 °C 8,0 °C 58 % 84 % 1023,1 hPa 0,0 l/m² 0,5 km/h (0 Bft) W-SW 0,00 h 0 W/m² 5,4 °C 8,0 °C 1,2 km/h (1 Bft)
28.09.2024 22:00 20,7 °C 7,1 °C 58 % 87 % 1023,8 hPa 0,0 l/m² 0,1 km/h (0 Bft) W-SW 0,00 h 0 W/m² 5,0 °C 7,1 °C 0,2 km/h (0 Bft)
28.09.2024 23:00 20,7 °C 7,1 °C 58 % 88 % 1024,4 hPa 0,0 l/m² 0,2 km/h (0 Bft) S 0,00 h 0 W/m² 5,1 °C 7,1 °C 0,7 km/h (0 Bft)
29.09.2024 00:00 20,6 °C 6,5 °C 58 % 89 % 1025,0 hPa 0,0 l/m² 0,8 km/h (0 Bft) S-SO 0,00 h 0 W/m² 4,8 °C 6,5 °C 1,9 km/h (1 Bft)
29.09.2024 01:00 20,6 °C 5,9 °C 58 % 89 % 1025,3 hPa 0,0 l/m² 0,0 km/h (0 Bft) W-SW 0,00 h 0 W/m² 4,3 °C 5,9 °C 0,0 km/h (0 Bft)
29.09.2024 02:00 20,4 °C 5,4 °C 58 % 91 % 1025,9 hPa 0,0 l/m² 0,0 km/h (0 Bft) W-SW 0,00 h 0 W/m² 4,0 °C 5,4 °C 0,1 km/h (0 Bft)
29.09.2024 03:00 20,4 °C 5,3 °C 58 % 91 % 1026,1 hPa 0,0 l/m² 0,3 km/h (0 Bft) W-SW 0,00 h 0 W/m² 4,0 °C 5,3 °C 0,6 km/h (0 Bft)
29.09.2024 04:00 20,3 °C 4,7 °C 58 % 91 % 1026,4 hPa 0,0 l/m² 0,0 km/h (0 Bft) W-SW 0,00 h 0 W/m² 3,4 °C 4,7 °C 0,1 km/h (0 Bft)
29.09.2024 05:00 20,2 °C 4,1 °C 58 % 92 % 1027,0 hPa 0,0 l/m² 0,4 km/h (0 Bft) S 0,00 h 0 W/m² 2,9 °C 4,1 °C 0,9 km/h (0 Bft)
29.09.2024 06:00 20,2 °C 4,4 °C 58 % 93 % 1027,3 hPa 0,0 l/m² 0,1 km/h (0 Bft) S 0,00 h 0 W/m² 3,4 °C 4,4 °C 0,3 km/h (0 Bft)
29.09.2024 07:00 20,1 °C 5,1 °C 58 % 93 % 1027,8 hPa 0,0 l/m² 1,4 km/h (1 Bft) S-SW 0,10 h 26 W/m² 4,0 °C 5,1 °C 2,6 km/h (1 Bft)
29.09.2024 08:00 20,0 °C 6,6 °C 58 % 92 % 1028,4 hPa 0,0 l/m² 1,4 km/h (1 Bft) S-SW 1,00 h 150 W/m² 5,4 °C 6,6 °C 2,2 km/h (1 Bft)
29.09.2024 09:00 20,0 °C 9,6 °C 57 % 87 % 1028,7 hPa 0,0 l/m² 5,7 km/h (2 Bft) SW 0,98 h 319 W/m² 7,6 °C 9,4 °C 8,2 km/h (2 Bft)
29.09.2024 10:00 20,1 °C 12,1 °C 57 % 76 % 1028,9 hPa 0,0 l/m² 5,8 km/h (2 Bft) W-SW 1,02 h 463 W/m² 8,0 °C 11,7 °C 10,1 km/h (2 Bft)
29.09.2024 11:00 20,1 °C 13,4 °C 57 % 70 % 1028,9 hPa 0,0 l/m² 4,0 km/h (1 Bft) W 1,00 h 598 W/m² 8,1 °C 13,3 °C 8,5 km/h (2 Bft)
29.09.2024 12:00 20,1 °C 14,8 °C 57 % 63 % 1028,8 hPa 0,0 l/m² 4,5 km/h (1 Bft) W 1,00 h 589 W/m² 7,9 °C 14,7 °C 8,4 km/h (2 Bft)
29.09.2024 13:00 20,1 °C 15,6 °C 57 % 58 % 1028,5 hPa 0,0 l/m² 3,6 km/h (1 Bft) W 1,00 h 658 W/m² 7,3 °C 15,6 °C 7,1 km/h (2 Bft)
29.09.2024 14:00 20,1 °C 14,8 °C 57 % 58 % 1028,2 hPa 0,0 l/m² 5,1 km/h (1 Bft) N-NW 1,00 h 310 W/m² 6,6 °C 14,8 °C 7,8 km/h (2 Bft)
29.09.2024 15:00 20,2 °C 14,7 °C 57 % 59 % 1027,9 hPa 0,0 l/m² 1,9 km/h (1 Bft) N-NW 1,00 h 305 W/m² 6,8 °C 14,7 °C 4,0 km/h (1 Bft)
29.09.2024 16:00 20,1 °C 14,7 °C 57 % 59 % 1027,5 hPa 0,0 l/m² 1,5 km/h (1 Bft) SW 1,00 h 244 W/m² 6,7 °C 14,7 °C 2,9 km/h (1 Bft)
29.09.2024 17:00 20,1 °C 14,7 °C 57 % 58 % 1027,2 hPa 0,0 l/m² 0,8 km/h (0 Bft) W-SW 0,98 h 164 W/m² 6,5 °C 14,7 °C 2,0 km/h (1 Bft)
29.09.2024 18:00 20,1 °C 13,0 °C 57 % 66 % 1027,1 hPa 0,0 l/m² 3,4 km/h (1 Bft) O 0,00 h 17 W/m² 6,8 °C 13,0 °C 4,8 km/h (1 Bft)
29.09.2024 19:00 20,1 °C 10,4 °C 57 % 77 % 1026,9 hPa 0,0 l/m² 1,3 km/h (1 Bft) O-NO 0,00 h 0 W/m² 6,5 °C 10,4 °C 2,8 km/h (1 Bft)
29.09.2024 20:00 20,1 °C 8,8 °C 57 % 83 % 1027,1 hPa 0,0 l/m² 0,5 km/h (0 Bft) O-NO 0,00 h 0 W/m² 6,0 °C 8,8 °C 1,2 km/h (1 Bft)
29.09.2024 21:00 20,0 °C 7,7 °C 57 % 87 % 1026,9 hPa 0,0 l/m² 1,7 km/h (1 Bft) O-NO 0,00 h 0 W/m² 5,6 °C 7,7 °C 3,0 km/h (1 Bft)
29.09.2024 22:00 19,9 °C 7,3 °C 57 % 88 % 1026,4 hPa 0,0 l/m² 1,5 km/h (1 Bft) O-NO 0,00 h 0 W/m² 5,5 °C 7,3 °C 3,0 km/h (1 Bft)
29.09.2024 23:00 19,9 °C 7,5 °C 57 % 88 % 1025,7 hPa 0,0 l/m² 2,4 km/h (1 Bft) O-NO 0,00 h 0 W/m² 5,6 °C 7,5 °C 4,0 km/h (1 Bft)
Min-Datum _ 29.09.24 29.09.24 23.09.24 23.09.24 26.09.24 - 29.09.24 - - - 29.09.24 29.09.24 29.09.24
_ Min-Zeit 23:27 06:01 07:00 15:12 11:32 - 23:59 - - - 06:01 06:01 23:59
Minimum _ 19,8 °C 3,8 °C 51 % 41 % 992,9 hPa - 0,0 km/h (0 Bft) - - - 2,6 °C 3,8 °C 0,0 km/h (0 Bft)
Max-Datum _ 23.09.24 23.09.24 27.09.24 24.09.24 29.09.24 24.09.24 27.09.24 - 27.09.24 29.09.24 26.09.24 23.09.24 27.09.24
_ Max-Zeit 21:00 15:26 07:21 11:01 11:05 07:55 14:19 - 15:22 13:09 14:59 14:36 13:59
Maximum _ 23,1 °C 26,7 °C 62 % 95 % 1029,0 hPa 5,4 l/m² 47,1 km/h
S-SW (6 Bft)
- 0,10 h 824 W/m² 16,5 °C 26,7 °C 67,6 km/h
S-SW (8 Bft)
Durchschnitt _ 21,6 °C 15,0 °C 58 % 79 % 1008,1 hPa #24,8 l/m² 10,3 km/h (2 Bft) S-SW #63:38 h 112 W/m² 11,2 °C 12,9 °C 14,4 km/h (3 Bft)
© 2009 Mathias Hoßbach